Time;durP1;ratioP1;P1;durP2;ratioP2;P2;SDS_P1;SDS_P2;PMS_P1;PMS_P2;Temp;Humidity;BMP_temperature;BMP_pressure;BME280_temperature;BME280_humidity;BME280_pressure;Samples;Min_cycle;Max_cycle;Signal;HPM_P1;HPM_P2
2020/02/21 00:01:11;;;;;;;6.8;4.5;;;;;;;;;;;;;
2020/02/21 00:03:40;;;;;;;6.2;3.8;;;;;;;;;;;;;
2020/02/21 00:06:03;;;;;;;5.9;3.3;;;;;;;;;;;;;
2020/02/21 00:08:28;;;;;;;7;4;;;;;;;;;;;;;
2020/02/21 00:10:52;;;;;;;5.9;3.6;;;;;;;;;;;;;
2020/02/21 00:13:16;;;;;;;5.8;3.3;;;;;;;;;;;;;
2020/02/21 00:15:48;;;;;;;5.5;3.7;;;;;;;;;;;;;
2020/02/21 00:18:23;;;;;;;6;3.8;;;;;;;;;;;;;
2020/02/21 00:20:51;;;;;;;6.6;4;;;;;;;;;;;;;
2020/02/21 00:23:13;;;;;;;7.1;3.9;;;;;;;;;;;;;
2020/02/21 00:25:38;;;;;;;6.5;3.8;;;;;;;;;;;;;
2020/02/21 00:28:04;;;;;;;5.3;3.6;;;;;;;;;;;;;
2020/02/21 00:30:34;;;;;;;5.5;3.6;;;;;;;;;;;;;
2020/02/21 00:32:56;;;;;;;5;3.2;;;;;;;;;;;;;
2020/02/21 00:35:22;;;;;;;7;3.1;;;;;;;;;;;;;
2020/02/21 00:37:51;;;;;;;4.9;3.1;;;;;;;;;;;;;
2020/02/21 00:40:15;;;;;;;4.2;2.7;;;;;;;;;;;;;
2020/02/21 00:45:04;;;;;;;4.3;2.5;;;;;;;;;;;;;
2020/02/21 00:47:32;;;;;;;4.8;2.3;;;;;;;;;;;;;
2020/02/21 00:50:08;;;;;;;4.8;3.2;;;;;;;;;;;;;
2020/02/21 00:52:40;;;;;;;6.1;4.4;;;;;;;;;;;;;
2020/02/21 00:55:15;;;;;;;6.1;5;;;;;;;;;;;;;
2020/02/21 00:57:26;;;;;;;6.1;5.2;;;;;;;;;;;;;
2020/02/21 00:59:49;;;;;;;7.3;5.2;;;;;;;;;;;;;
2020/02/21 01:02:14;;;;;;;3.2;2.6;;;;;;;;;;;;;
2020/02/21 01:04:41;;;;;;;4.5;3;;;;;;;;;;;;;
2020/02/21 01:07:04;;;;;;;3.5;2.4;;;;;;;;;;;;;
2020/02/21 01:09:33;;;;;;;3.3;2.2;;;;;;;;;;;;;
2020/02/21 01:11:55;;;;;;;3.3;2.2;;;;;;;;;;;;;
2020/02/21 01:14:23;;;;;;;2.2;1.6;;;;;;;;;;;;;
2020/02/21 01:16:48;;;;;;;2.9;1.8;;;;;;;;;;;;;
2020/02/21 01:19:16;;;;;;;2.3;1.8;;;;;;;;;;;;;
2020/02/21 01:21:46;;;;;;;2.7;1.8;;;;;;;;;;;;;
2020/02/21 01:24:19;;;;;;;3.1;2;;;;;;;;;;;;;
2020/02/21 01:26:31;;;;;;;3;2;;;;;;;;;;;;;
2020/02/21 01:29:01;;;;;;;2.8;1.8;;;;;;;;;;;;;
2020/02/21 01:31:27;;;;;;;2.8;1.5;;;;;;;;;;;;;
2020/02/21 01:33:51;;;;;;;3.1;1.8;;;;;;;;;;;;;
2020/02/21 01:36:13;;;;;;;3;1.6;;;;;;;;;;;;;
2020/02/21 01:38:46;;;;;;;2.1;1.5;;;;;;;;;;;;;
2020/02/21 01:41:18;;;;;;;3;1.5;;;;;;;;;;;;;
2020/02/21 01:43:39;;;;;;;2.2;1.3;;;;;;;;;;;;;
2020/02/21 01:46:17;;;;;;;1.9;1.1;;;;;;;;;;;;;
2020/02/21 01:48:43;;;;;;;2.1;1;;;;;;;;;;;;;
2020/02/21 01:51:09;;;;;;;3.4;1;;;;;;;;;;;;;
2020/02/21 01:53:33;;;;;;;2.9;0.7;;;;;;;;;;;;;
2020/02/21 01:56:01;;;;;;;2.5;0.9;;;;;;;;;;;;;
2020/02/21 01:58:23;;;;;;;2.5;0.8;;;;;;;;;;;;;
2020/02/21 02:00:52;;;;;;;1.5;0.7;;;;;;;;;;;;;
2020/02/21 02:03:16;;;;;;;1.1;0.7;;;;;;;;;;;;;
2020/02/21 02:10:34;;;;;;;1.7;0.8;;;;;;;;;;;;;
2020/02/21 02:15:36;;;;;;;5;0.7;;;;;;;;;;;;;
2020/02/21 02:17:50;;;;;;;3.1;0.7;;;;;;;;;;;;;
2020/02/21 02:20:41;;;;;;;1.4;0.7;;;;;;;;;;;;;
2020/02/21 02:22:49;;;;;;;0.9;0.6;;;;;;;;;;;;;
2020/02/21 02:25:08;;;;;;;2;0.6;;;;;;;;;;;;;
2020/02/21 02:27:33;;;;;;;1.4;0.5;;;;;;;;;;;;;
2020/02/21 02:30:17;;;;;;;2.3;0.6;;;;;;;;;;;;;
2020/02/21 02:32:26;;;;;;;0.6;0.4;;;;;;;;;;;;;
2020/02/21 02:35:20;;;;;;;1;0.7;;;;;;;;;;;;;
2020/02/21 02:37:51;;;;;;;0.9;0.6;;;;;;;;;;;;;
2020/02/21 02:40:19;;;;;;;0.9;0.5;;;;;;;;;;;;;
2020/02/21 02:42:41;;;;;;;0.9;0.5;;;;;;;;;;;;;
2020/02/21 02:45:04;;;;;;;1.3;0.5;;;;;;;;;;;;;
2020/02/21 02:47:28;;;;;;;1.3;0.7;;;;;;;;;;;;;
2020/02/21 02:49:57;;;;;;;1.5;0.8;;;;;;;;;;;;;
2020/02/21 02:52:35;;;;;;;1.2;0.7;;;;;;;;;;;;;
2020/02/21 02:54:58;;;;;;;1;0.5;;;;;;;;;;;;;
2020/02/21 02:57:20;;;;;;;2.5;0.8;;;;;;;;;;;;;
2020/02/21 03:00:14;;;;;;;1.8;0.7;;;;;;;;;;;;;
2020/02/21 03:02:45;;;;;;;1.6;0.8;;;;;;;;;;;;;
2020/02/21 03:04:38;;;;;;;1.4;0.8;;;;;;;;;;;;;
2020/02/21 03:07:00;;;;;;;2.3;1;;;;;;;;;;;;;
2020/02/21 03:09:25;;;;;;;1.7;0.7;;;;;;;;;;;;;
2020/02/21 03:11:46;;;;;;;2.7;1.1;;;;;;;;;;;;;
2020/02/21 03:14:19;;;;;;;4.9;1.6;;;;;;;;;;;;;
2020/02/21 03:17:23;;;;;;;3.7;1.5;;;;;;;;;;;;;
2020/02/21 03:20:06;;;;;;;3.4;1.4;;;;;;;;;;;;;
2020/02/21 03:22:17;;;;;;;1.3;0.8;;;;;;;;;;;;;
2020/02/21 03:25:14;;;;;;;0.9;0.7;;;;;;;;;;;;;
2020/02/21 03:27:17;;;;;;;1.4;0.7;;;;;;;;;;;;;
2020/02/21 03:29:42;;;;;;;1;0.7;;;;;;;;;;;;;
2020/02/21 03:32:08;;;;;;;1;0.7;;;;;;;;;;;;;
2020/02/21 03:34:36;;;;;;;0.9;0.6;;;;;;;;;;;;;
2020/02/21 03:37:08;;;;;;;0.8;0.6;;;;;;;;;;;;;
2020/02/21 03:39:31;;;;;;;1.3;0.6;;;;;;;;;;;;;
2020/02/21 03:42:02;;;;;;;1.3;0.5;;;;;;;;;;;;;
2020/02/21 03:44:26;;;;;;;1.5;0.8;;;;;;;;;;;;;
2020/02/21 03:46:57;;;;;;;0.7;0.4;;;;;;;;;;;;;
2020/02/21 03:49:21;;;;;;;0.8;0.5;;;;;;;;;;;;;
2020/02/21 03:51:52;;;;;;;1;0.5;;;;;;;;;;;;;
2020/02/21 03:54:19;;;;;;;0.7;0.3;;;;;;;;;;;;;
2020/02/21 03:56:38;;;;;;;0.3;0.2;;;;;;;;;;;;;
2020/02/21 03:59:03;;;;;;;1;0.3;;;;;;;;;;;;;
2020/02/21 04:02:53;;;;;;;2;0.5;;;;;;;5.69;75.63965;942.7119;;;;
2020/02/21 04:05:22;;;;;;;0.3;0.2;;;;;;;5.63;74.72754;942.875;;;;
2020/02/21 04:07:54;;;;;;;0.2;0.2;;;;;;;5.36;74.375;943.0419;;;;
2020/02/21 04:10:27;;;;;;;0.4;0.2;;;;;;;5.45;73.74805;943.1425;;;;
2020/02/21 04:12:50;;;;;;;0.5;0.1;;;;;;;5.37;74.01563;943.3903;;;;
2020/02/21 04:15:26;;;;;;;0.2;0.2;;;;;;;5.23;74.29492;943.4205;;;;
2020/02/21 04:20:48;;;;;;;0.1;0.1;;;;;;;4.75;75.52051;943.7564;;;;
2020/02/21 04:23:20;;;;;;;0.1;0.1;;;;;;;4.28;77.24707;943.4803;;;;
2020/02/21 04:26:21;;;;;;;0.9;0.1;;;;;;;4.29;76.14746;943.7166;;;;
2020/02/21 04:28:56;;;;;;;0.1;0.1;;;;;;;4.44;75.79199;943.7783;;;;
2020/02/21 04:31:40;;;;;;;0.3;0.2;;;;;;;4.49;73.58301;944.1114;;;;
2020/02/21 04:35:06;;;;;;;0.4;0.2;;;;;;;4.72;72.4502;943.968;;;;
2020/02/21 04:37:30;;;;;;;0.5;0.2;;;;;;;4.76;72.0293;944.3397;;;;
2020/02/21 04:39:56;;;;;;;0.9;0.4;;;;;;;4.76;70.24805;944.3625;;;;
2020/02/21 04:42:55;;;;;;;0.6;0.4;;;;;;;4.95;71.41895;944.4116;;;;
2020/02/21 04:45:45;;;;;;;0.7;0.3;;;;;;;4.79;70.97559;944.3164;;;;
2020/02/21 04:48:12;;;;;;;0.6;0.2;;;;;;;4.51;68.96973;944.3014;;;;
2020/02/21 04:52:27;;;;;;;1;0.4;;;;;;;4.53;69.7959;944.5233;;;;
2020/02/21 04:55:00;;;;;;;0.7;0.4;;;;;;;4.64;71.97656;944.671;;;;
2020/02/21 04:57:31;;;;;;;0.9;0.7;;;;;;;4.66;70.58301;944.563;;;;
2020/02/21 05:00:25;;;;;;;1.9;0.9;;;;;;;4.47;71.86719;944.6331;;;;
2020/02/21 05:05:31;;;;;;;1.1;0.3;;;;;;;4.86;71.67285;944.9792;;;;
2020/02/21 05:07:56;;;;;;;0.9;0.4;;;;;;;4.89;66.91211;945.106;;;;
2020/02/21 05:10:28;;;;;;;1.4;0.6;;;;;;;4.73;67.17969;945.2402;;;;
2020/02/21 05:15:02;;;;;;;1.4;0.9;;;;;;;4.88;63.59863;945.187;;;;
2020/02/21 05:16:40;;;;;;;1.4;0.8;;;;;;;5.1;59.62793;945.3909;;;;
2020/02/21 05:20:13;;;;;;;1.3;0.6;;;;;;;5.33;57.7998;945.5115;;;;
2020/02/21 05:22:38;;;;;;;1.4;0.8;;;;;;;5.46;67.30762;945.5952;;;;
2020/02/21 05:25:13;;;;;;;1.2;0.7;;;;;;;5.4;68.49219;945.5844;;;;
2020/02/21 05:27:40;;;;;;;1.4;0.8;;;;;;;5.28;63.70215;945.5724;;;;
2020/02/21 05:30:31;;;;;;;1.9;0.7;;;;;;;5.09;65.66992;945.6566;;;;
2020/02/21 05:33:05;;;;;;;1.2;0.7;;;;;;;5.24;66.13281;945.8554;;;;
2020/02/21 05:35:35;;;;;;;3.5;0.6;;;;;;;5.24;57.12207;945.9152;;;;
2020/02/21 05:38:08;;;;;;;1.1;0.8;;;;;;;5.03;48.91016;946.0909;;;;
2020/02/21 05:45:38;;;;;;;0.9;0.3;;;;;;;5.32;49.31445;946.1789;;;;
2020/02/21 05:48:00;;;;;;;1.9;0.6;;;;;;;5.4;48.27637;946.1492;;;;
2020/02/21 05:50:22;;;;;;;1.1;0.6;;;;;;;5.14;48.48242;946.1592;;;;
2020/02/21 05:52:55;;;;;;;4.1;0.6;;;;;;;5.22;53.38574;946.2795;;;;
2020/02/21 05:55:21;;;;;;;1.3;0.7;;;;;;;5.25;60.20215;946.2233;;;;
2020/02/21 05:57:47;;;;;;;0.8;0.5;;;;;;;5.07;51.42773;946.1932;;;;
2020/02/21 06:00:16;;;;;;;3.3;0.4;;;;;;;4.97;46.61426;946.0806;;;;
2020/02/21 06:02:39;;;;;;;0.4;0.4;;;;;;;5.06;47.2002;946.3176;;;;
2020/02/21 06:05:12;;;;;;;1;0.5;;;;;;;5.23;49.00098;946.2225;;;;
2020/02/21 06:07:42;;;;;;;1;0.6;;;;;;;5.35;50.30078;946.3524;;;;
2020/02/21 06:10:21;;;;;;;1.6;0.7;;;;;;;5.42;50.81641;946.4292;;;;
2020/02/21 06:12:49;;;;;;;1.2;0.6;;;;;;;5.41;44.73438;946.443;;;;
2020/02/21 06:15:12;;;;;;;0.8;0.5;;;;;;;5.42;45.76074;946.5256;;;;
2020/02/21 06:17:47;;;;;;;1.3;0.7;;;;;;;5.42;48.81836;946.4707;;;;
2020/02/21 06:20:20;;;;;;;2.3;0.7;;;;;;;5.37;50.18945;946.4053;;;;
2020/02/21 06:22:53;;;;;;;1.8;0.7;;;;;;;5.47;50.78906;946.5103;;;;
2020/02/21 06:25:23;;;;;;;1.6;0.8;;;;;;;5.44;57.72461;946.5619;;;;
2020/02/21 06:27:58;;;;;;;1.9;0.9;;;;;;;5.3;61.93555;946.6631;;;;
2020/02/21 06:30:32;;;;;;;1.6;0.9;;;;;;;5.15;61.97949;946.5945;;;;
2020/02/21 06:33:10;;;;;;;1.4;0.8;;;;;;;5.02;63.47363;946.8039;;;;
2020/02/21 06:35:47;;;;;;;1.9;0.9;;;;;;;5.02;64.16113;946.8267;;;;
2020/02/21 06:38:28;;;;;;;2.8;1.1;;;;;;;4.96;61.07324;946.7566;;;;
2020/02/21 06:41:03;;;;;;;2.4;1.2;;;;;;;4.97;61.40234;946.7484;;;;
2020/02/21 06:43:36;;;;;;;1.5;1.1;;;;;;;5.02;60.54102;946.7444;;;;
2020/02/21 06:45:58;;;;;;;2.1;1.2;;;;;;;5.01;60.19043;946.7985;;;;
2020/02/21 06:48:57;;;;;;;5.1;1.3;;;;;;;5.01;59.36719;946.8103;;;;
2020/02/21 06:50:57;;;;;;;5.3;2.9;;;;;;;5.07;60.65039;946.7545;;;;
2020/02/21 06:53:19;;;;;;;6;2.8;;;;;;;5.04;59.56445;946.875;;;;
2020/02/21 06:55:51;;;;;;;8.4;4.7;;;;;;;5.01;60.94727;946.8809;;;;
2020/02/21 07:01:08;;;;;;;7.7;4.7;;;;;;;5.17;62.28809;946.9185;;;;
2020/02/21 07:03:29;;;;;;;11;5.7;;;;;;;5.13;63.09473;947.0353;;;;
2020/02/21 07:06:14;;;;;;;9.2;5.7;;;;;;;5.18;62.11035;947.0903;;;;
2020/02/21 07:08:55;;;;;;;7.5;4.6;;;;;;;5.09;63.06543;947.1248;;;;
2020/02/21 07:11:22;;;;;;;9.4;4.4;;;;;;;5.08;63.41406;947.0938;;;;
2020/02/21 07:13:53;;;;;;;6.4;3.7;;;;;;;5.14;62.91602;947.1722;;;;
2020/02/21 07:16:30;;;;;;;4.6;2.2;;;;;;;5.21;63.71387;947.3191;;;;
2020/02/21 07:18:48;;;;;;;3.5;2.1;;;;;;;5.07;63.90723;947.3693;;;;
2020/02/21 07:21:13;;;;;;;6.3;3.7;;;;;;;5.14;64.65234;947.3585;;;;
2020/02/21 07:23:43;;;;;;;4.1;2.8;;;;;;;5.25;65.53516;947.252;;;;
2020/02/21 07:28:33;;;;;;;3.7;2.6;;;;;;;5.31;64.84766;947.5108;;;;
2020/02/21 07:31:03;;;;;;;3.4;1.7;;;;;;;5.09;64.23828;947.5419;;;;
2020/02/21 07:36:38;;;;;;;4.8;1.4;;;;;;;5.46;60.22168;947.4766;;;;
2020/02/21 07:39:10;;;;;;;2.8;1.8;;;;;;;5.55;60.04102;947.5578;;;;
2020/02/21 07:41:38;;;;;;;2.3;1.1;;;;;;;5.55;58.19043;947.5846;;;;
2020/02/21 07:44:17;;;;;;;1.9;1;;;;;;;5.7;57.60156;947.5851;;;;
2020/02/21 07:46:43;;;;;;;1.9;1;;;;;;;5.85;55.83691;947.5734;;;;
2020/02/21 07:49:13;;;;;;;1.4;0.9;;;;;;;6.01;57.47461;947.4805;;;;
2020/02/21 07:51:42;;;;;;;1.6;1;;;;;;;6.22;54.21191;947.4938;;;;
2020/02/21 07:54:19;;;;;;;2.1;1.1;;;;;;;6.25;53.51563;947.5965;;;;
2020/02/21 07:56:52;;;;;;;2;0.9;;;;;;;6.48;52.59375;947.6401;;;;
2020/02/21 07:59:19;;;;;;;1.8;1;;;;;;;6.48;48.65723;947.6242;;;;
2020/02/21 08:01:48;;;;;;;3.2;1.3;;;;;;;6.74;51.66406;947.6408;;;;
2020/02/21 08:04:33;;;;;;;2.4;2.1;;;;;;;6.78;49.8457;947.7944;;;;
2020/02/21 08:07:08;;;;;;;2.2;1.2;;;;;;;6.82;48.80859;947.7059;;;;
2020/02/21 08:09:40;;;;;;;1.7;0.9;;;;;;;6.91;47.82422;947.7554;;;;
2020/02/21 08:12:08;;;;;;;2.2;0.9;;;;;;;7.13;46.82715;947.8265;;;;
2020/02/21 08:14:38;;;;;;;2.9;0.9;;;;;;;7.79;41.36426;947.8024;;;;
2020/02/21 08:17:10;;;;;;;1.6;0.8;;;;;;;8.13;40.84082;947.805;;;;
2020/02/21 08:19:47;;;;;;;1.6;0.8;;;;;;;8.38;41.11426;947.8563;;;;
2020/02/21 08:22:33;;;;;;;2.8;1.2;;;;;;;8.19;41.48242;947.8644;;;;
2020/02/21 08:24:41;;;;;;;6.6;3;;;;;;;8.27;41.5127;947.8569;;;;
2020/02/21 08:27:14;;;;;;;3;1;;;;;;;8.19;41.9248;947.9412;;;;
2020/02/21 08:29:42;;;;;;;4.1;1.1;;;;;;;8.18;41.03906;947.8917;;;;
2020/02/21 08:33:04;;;;;;;3.7;0.8;;;;;;;8.67;39.69824;947.8811;;;;
2020/02/21 08:35:17;;;;;;;2.5;0.8;;;;;;;8.79;38.53809;947.9644;;;;
2020/02/21 08:37:33;;;;;;;6.7;1.1;;;;;;;8.86;40.43262;947.9684;;;;
2020/02/21 08:40:02;;;;;;;2;0.9;;;;;;;9.13;39.91113;947.9961;;;;
2020/02/21 08:42:30;;;;;;;3;1;;;;;;;9.02;39.12793;947.9453;;;;
2020/02/21 08:44:57;;;;;;;2.2;1;;;;;;;9.05;38.85742;948.0422;;;;
2020/02/21 08:47:28;;;;;;;4.5;1;;;;;;;8.77;38.91113;948.0345;;;;
2020/02/21 08:50:12;;;;;;;7.8;1.7;;;;;;;8.51;40.95605;948.0671;;;;
2020/02/21 08:52:23;;;;;;;2.3;0.8;;;;;;;8.46;42.04297;948.04;;;;
2020/02/21 08:54:56;;;;;;;2.6;0.6;;;;;;;8.01;45.40332;948.1606;;;;
2020/02/21 08:57:23;;;;;;;2;0.8;;;;;;;7.74;45.9873;948.128;;;;
2020/02/21 09:00:01;;;;;;;1.7;0.8;;;;;;;7.5;45.91602;948.2195;;;;
2020/02/21 09:02:36;;;;;;;1.8;1;;;;;;;7.15;48.88086;948.19;;;;
2020/02/21 09:05:32;;;;;;;2.8;0.9;;;;;;;7.11;49.58008;948.1626;;;;
2020/02/21 09:07:53;;;;;;;3.1;0.9;;;;;;;6.93;51.32422;948.1838;;;;
2020/02/21 09:10:18;;;;;;;3.1;1.1;;;;;;;7.1;49.89551;948.1866;;;;
2020/02/21 09:12:45;;;;;;;4.3;1;;;;;;;7.14;50.43164;948.1484;;;;
2020/02/21 09:15:23;;;;;;;2.1;0.9;;;;;;;6.88;53.71777;948.1033;;;;
2020/02/21 09:17:34;;;;;;;1.8;0.9;;;;;;;6.99;51.7959;948.0458;;;;
2020/02/21 09:20:20;;;;;;;2.1;0.7;;;;;;;6.64;51.58398;948.1245;;;;
2020/02/21 09:22:38;;;;;;;2.1;0.8;;;;;;;6.48;54.21094;948.1691;;;;
2020/02/21 09:25:07;;;;;;;3.1;0.9;;;;;;;6.59;52.60742;948.2213;;;;
2020/02/21 09:27:37;;;;;;;2.8;1.1;;;;;;;6.91;52.27344;948.1219;;;;
2020/02/21 09:29:59;;;;;;;3.7;1.1;;;;;;;7.03;51.40332;948.1061;;;;
2020/02/21 09:32:30;;;;;;;1.6;0.7;;;;;;;6.95;51.90527;948.1395;;;;
2020/02/21 09:34:53;;;;;;;3;0.9;;;;;;;7.08;51.38672;948.1992;;;;
2020/02/21 09:37:21;;;;;;;3;1;;;;;;;7.37;49.6543;948.1852;;;;
2020/02/21 09:39:52;;;;;;;3.3;0.7;;;;;;;7.64;46.69141;948.2751;;;;
2020/02/21 09:42:24;;;;;;;2.6;0.9;;;;;;;7.71;49.25098;948.3052;;;;
2020/02/21 09:44:43;;;;;;;4;1.4;;;;;;;7.76;50.1875;948.3619;;;;
2020/02/21 09:47:14;;;;;;;2.9;0.9;;;;;;;7.92;47.95898;948.2981;;;;
2020/02/21 09:49:36;;;;;;;1.7;0.8;;;;;;;7.93;47.34766;948.3442;;;;
2020/02/21 09:53:04;;;;;;;2.1;0.7;;;;;;;8.11;47.18555;948.4352;;;;
2020/02/21 09:54:26;;;;;;;1.4;0.6;;;;;;;8;46.40137;948.4474;;;;
2020/02/21 09:57:05;;;;;;;3;0.8;;;;;;;8.24;46.6543;948.3803;;;;
2020/02/21 09:59:29;;;;;;;5.3;0.8;;;;;;;7.87;47.64648;948.4009;;;;
2020/02/21 10:01:55;;;;;;;2.4;0.8;;;;;;;7.79;47.15039;948.5715;;;;
2020/02/21 10:04:24;;;;;;;1.7;0.7;;;;;;;7.92;46.45996;948.6072;;;;
2020/02/21 10:06:48;;;;;;;1.8;0.8;;;;;;;8.12;48.50391;948.6544;;;;
2020/02/21 10:09:13;;;;;;;2.5;0.8;;;;;;;8.11;48.12695;948.6174;;;;
2020/02/21 10:11:50;;;;;;;5;1.1;;;;;;;7.94;49.60547;948.5533;;;;
2020/02/21 10:14:37;;;;;;;2;0.8;;;;;;;7.86;49.43848;948.6367;;;;
2020/02/21 10:17:08;;;;;;;1.8;0.8;;;;;;;7.91;49.16016;948.7061;;;;
2020/02/21 10:19:47;;;;;;;2.5;0.8;;;;;;;7.82;50.76172;948.6703;;;;
2020/02/21 10:22:18;;;;;;;3.5;1;;;;;;;7.7;52.76563;948.7328;;;;
2020/02/21 10:24:45;;;;;;;2.4;0.9;;;;;;;7.52;51.79297;948.6508;;;;
2020/02/21 10:27:17;;;;;;;2.9;0.9;;;;;;;7.45;54.3457;948.6386;;;;
2020/02/21 10:29:48;;;;;;;1.8;0.7;;;;;;;7.4;52.45703;948.5847;;;;
2020/02/21 10:32:21;;;;;;;1.9;0.8;;;;;;;7.31;53.20605;948.5712;;;;
2020/02/21 10:34:53;;;;;;;2.5;1;;;;;;;7.28;53.97168;948.562;;;;
2020/02/21 10:37:22;;;;;;;3.4;0.9;;;;;;;7.49;54.25977;948.5697;;;;
2020/02/21 10:39:52;;;;;;;2.4;0.8;;;;;;;7.6;54.43359;948.531;;;;
2020/02/21 10:42:29;;;;;;;1.7;0.8;;;;;;;7.94;53.33984;948.5565;;;;
2020/02/21 10:45:07;;;;;;;2.1;0.8;;;;;;;8.48;51.10059;948.5644;;;;
2020/02/21 10:47:32;;;;;;;4.9;1;;;;;;;8.9;49.64941;948.6044;;;;
2020/02/21 10:50:02;;;;;;;2.8;0.9;;;;;;;9.4;47.59961;948.5521;;;;
2020/02/21 10:52:32;;;;;;;4.8;0.9;;;;;;;9.77;46.11328;948.5383;;;;
2020/02/21 10:54:56;;;;;;;1.9;0.8;;;;;;;10.25;44.91016;948.4988;;;;
2020/02/21 10:57:27;;;;;;;8.3;1.2;;;;;;;10.67;44.73633;948.3925;;;;
2020/02/21 10:59:57;;;;;;;2.1;0.9;;;;;;;10.72;46.52246;948.2844;;;;
2020/02/21 11:02:26;;;;;;;2.6;0.7;;;;;;;11.1;42.62012;948.3039;;;;
2020/02/21 11:04:56;;;;;;;1.7;0.7;;;;;;;11.47;41.83301;948.218;;;;
2020/02/21 11:07:29;;;;;;;1.9;0.8;;;;;;;11.94;40.6748;948.235;;;;
2020/02/21 11:09:58;;;;;;;2.6;0.9;;;;;;;11.85;40.33594;948.29;;;;
2020/02/21 11:12:31;;;;;;;2.1;0.8;;;;;;;12.44;41.29688;948.1553;;;;
2020/02/21 11:15:31;;;;;;;2.3;0.8;;;;;;;13.68;37.13477;948.0912;;;;
2020/02/21 11:21:07;;;;;;;3.5;0.6;;;;;;;15.61;34.3877;948.0639;;;;
2020/02/21 11:23:28;;;;;;;1.9;0.7;;;;;;;16.58;31.4082;948.0242;;;;
2020/02/21 11:25:48;;;;;;;1.7;0.7;;;;;;;16.73;30.67773;947.902;;;;
2020/02/21 11:28:16;;;;;;;1.5;0.8;;;;;;;18.13;28.67285;947.8684;;;;
2020/02/21 11:31:31;;;;;;;4.3;0.9;;;;;;;19.34;26.71387;947.8755;;;;
2020/02/21 11:34:11;;;;;;;2.1;0.8;;;;;;;19.44;25.48438;947.9442;;;;
2020/02/21 11:36:33;;;;;;;1.5;0.6;;;;;;;20.41;24.53613;947.9199;;;;
2020/02/21 11:39:04;;;;;;;1.9;0.7;;;;;;;21.39;23.32617;947.8445;;;;
2020/02/21 11:41:31;;;;;;;1.5;0.6;;;;;;;21.59;22.08398;947.7473;;;;
2020/02/21 11:43:55;;;;;;;1.7;0.7;;;;;;;22.49;21.65918;947.7949;;;;
2020/02/21 11:46:26;;;;;;;3;0.8;;;;;;;23.01;20.95605;947.7589;;;;
2020/02/21 11:48:56;;;;;;;2.3;0.7;;;;;;;22.26;21.22559;947.741;;;;
2020/02/21 11:51:31;;;;;;;2;0.8;;;;;;;20.47;22.22656;947.7536;;;;
2020/02/21 11:53:51;;;;;;;4.3;1;;;;;;;18.57;24.71289;947.6909;;;;
2020/02/21 11:56:15;;;;;;;1.5;0.6;;;;;;;19.91;23.87793;947.7003;;;;
2020/02/21 11:58:39;;;;;;;2.1;0.7;;;;;;;20.83;22.62988;947.7117;;;;
2020/02/21 12:01:24;;;;;;;2.2;0.8;;;;;;;22.05;21.41504;947.6353;;;;
2020/02/21 12:03:57;;;;;;;2.6;0.8;;;;;;;21.08;22.99414;947.7252;;;;
2020/02/21 12:07:30;;;;;;;2.3;0.7;;;;;;;20.58;23.75098;947.7059;;;;
2020/02/21 12:09:54;;;;;;;3;0.9;;;;;;;19.6;24.07129;947.7798;;;;
2020/02/21 12:12:24;;;;;;;3.8;0.9;;;;;;;21.28;23.30859;947.6795;;;;
2020/02/21 12:14:50;;;;;;;2.6;0.9;;;;;;;23.03;21.75586;947.801;;;;
2020/02/21 12:17:38;;;;;;;3.6;1;;;;;;;24.37;20.29004;947.7787;;;;
2020/02/21 12:20:14;;;;;;;3.4;0.9;;;;;;;25.32;19.10449;947.7449;;;;
2020/02/21 12:23:08;;;;;;;2.8;0.8;;;;;;;24.83;18.9541;947.7985;;;;
2020/02/21 12:25:19;;;;;;;3.4;0.8;;;;;;;24.8;18.72852;947.7021;;;;
2020/02/21 12:27:50;;;;;;;2.5;0.6;;;;;;;25.43;18.36523;947.7033;;;;
2020/02/21 12:30:25;;;;;;;2.7;0.7;;;;;;;25.43;17.92871;947.6777;;;;
2020/02/21 12:33:31;;;;;;;1;0.6;;;;;;;26.45;17.70898;947.7386;;;;
2020/02/21 12:36:11;;;;;;;1.7;0.7;;;;;;;27.07;16.18066;947.601;;;;
2020/02/21 12:38:36;;;;;;;1.6;0.8;;;;;;;28.1;15.54004;947.553;;;;
2020/02/21 12:41:12;;;;;;;1.1;0.6;;;;;;;28.15;15.69629;947.603;;;;
2020/02/21 12:43:48;;;;;;;2.4;0.8;;;;;;;28.92;14.90234;947.5402;;;;
2020/02/21 12:46:12;;;;;;;4.6;0.8;;;;;;;27.33;15.94043;947.4813;;;;
2020/02/21 12:48:47;;;;;;;1.5;0.7;;;;;;;27.84;15.43652;947.577;;;;
2020/02/21 12:51:15;;;;;;;1;0.6;;;;;;;28.19;15.25781;947.5316;;;;
2020/02/21 12:53:39;;;;;;;1.3;0.6;;;;;;;27.69;15.06348;947.4792;;;;
2020/02/21 12:58:39;;;;;;;3.6;1;;;;;;;28.38;15.39551;947.4864;;;;
2020/02/21 13:01:12;;;;;;;1.7;0.7;;;;;;;25;17.15625;947.541;;;;
2020/02/21 13:03:35;;;;;;;1.7;0.6;;;;;;;25.51;17.22266;947.5087;;;;
2020/02/21 13:06:05;;;;;;;1.5;0.6;;;;;;;27.09;15.44629;947.4694;;;;
2020/02/21 13:08:30;;;;;;;3.2;0.8;;;;;;;27.19;16.10156;947.4619;;;;
2020/02/21 13:10:59;;;;;;;1.7;0.6;;;;;;;28.12;14.98242;947.4929;;;;
2020/02/21 13:13:25;;;;;;;1.8;0.6;;;;;;;27.97;14.35938;947.5617;;;;
2020/02/21 13:15:56;;;;;;;0.8;0.5;;;;;;;27.61;14.88281;947.4664;;;;
2020/02/21 13:18:28;;;;;;;1.1;0.7;;;;;;;28.11;14.09082;947.3455;;;;
2020/02/21 13:20:54;;;;;;;2.1;0.6;;;;;;;27.46;15.58984;947.3566;;;;
2020/02/21 13:23:31;;;;;;;0.9;0.5;;;;;;;27.21;15.2373;947.3163;;;;
2020/02/21 13:25:55;;;;;;;1.7;0.7;;;;;;;28.06;13.9707;947.3494;;;;
2020/02/21 13:28:22;;;;;;;1.4;0.6;;;;;;;27.58;14.53711;947.2975;;;;
2020/02/21 13:30:51;;;;;;;0.9;0.5;;;;;;;27.49;14.52246;947.2728;;;;
2020/02/21 13:33:17;;;;;;;2.6;1;;;;;;;28.92;13.73535;947.2336;;;;
2020/02/21 13:35:46;;;;;;;2.1;0.8;;;;;;;29.65;13.31738;947.2875;;;;
2020/02/21 13:38:19;;;;;;;2.7;0.9;;;;;;;28.28;13.57422;947.3538;;;;
2020/02/21 13:40:36;;;;;;;1.5;0.7;;;;;;;28.71;13.37207;947.2963;;;;
2020/02/21 13:43:05;;;;;;;0.5;0.4;;;;;;;28.55;13.55762;947.2139;;;;
2020/02/21 13:45:31;;;;;;;1.8;0.5;;;;;;;29.14;13.06348;947.2881;;;;
2020/02/21 13:47:54;;;;;;;4.1;0.9;;;;;;;27.89;13.24121;947.0934;;;;
2020/02/21 13:50:27;;;;;;;3.7;1;;;;;;;24.69;15.06934;947.0066;;;;
2020/02/21 13:52:50;;;;;;;2;1;;;;;;;24.16;17.40625;947.1453;;;;
2020/02/21 13:57:44;;;;;;;2.9;0.7;;;;;;;21.69;16.54883;947.209;;;;
2020/02/21 14:00:07;;;;;;;2;0.6;;;;;;;21.91;16.66211;947.1355;;;;
2020/02/21 14:02:40;;;;;;;3.4;0.4;;;;;;;21.36;17.00488;947.0778;;;;
2020/02/21 14:05:10;;;;;;;1.8;0.6;;;;;;;19.43;19.2959;947.0889;;;;
2020/02/21 14:07:38;;;;;;;7.3;1.3;;;;;;;20.36;19.74609;947.1192;;;;
2020/02/21 14:10:53;;;;;;;3.2;1;;;;;;;20.79;18.33887;947.0773;;;;
2020/02/21 14:13:20;;;;;;;1.8;0.7;;;;;;;19.54;20.41992;947.2043;;;;
2020/02/21 14:15:44;;;;;;;1.7;0.5;;;;;;;19.61;19.3623;947.0856;;;;
2020/02/21 14:18:09;;;;;;;2.7;0.8;;;;;;;20.21;19.49414;947.0701;;;;
2020/02/21 14:20:36;;;;;;;3.6;0.6;;;;;;;20;18.81934;947.1648;;;;
2020/02/21 14:23:16;;;;;;;1.1;0.5;;;;;;;20.11;18.94043;947.2341;;;;
2020/02/21 14:25:45;;;;;;;0.9;0.6;;;;;;;20.28;18.70313;947.0647;;;;
2020/02/21 14:28:20;;;;;;;1.1;0.5;;;;;;;21.93;16.97949;947.1487;;;;
2020/02/21 14:30:52;;;;;;;1.8;0.6;;;;;;;20.48;17.60156;947.0672;;;;
2020/02/21 14:33:18;;;;;;;1.7;0.7;;;;;;;19.38;18.74609;947.1805;;;;
2020/02/21 14:35:46;;;;;;;0.9;0.6;;;;;;;18.79;18.97754;947.1404;;;;
2020/02/21 14:38:34;;;;;;;1.7;0.7;;;;;;;18.69;20.93848;947.1752;;;;
2020/02/21 14:41:05;;;;;;;1.5;0.7;;;;;;;19.31;19.09277;947.2651;;;;
2020/02/21 14:43:40;;;;;;;3.6;0.8;;;;;;;18.41;18.49609;947.1254;;;;
2020/02/21 14:46:09;;;;;;;1.7;0.6;;;;;;;18.34;17.80762;947.3694;;;;
2020/02/21 14:48:48;;;;;;;3.3;1;;;;;;;19.39;17.16211;947.35;;;;
2020/02/21 14:51:14;;;;;;;1.4;0.7;;;;;;;20.25;16.47168;947.3708;;;;
2020/02/21 14:53:40;;;;;;;3.6;0.8;;;;;;;20.18;16.67969;947.3455;;;;
2020/02/21 14:56:55;;;;;;;0.8;0.5;;;;;;;21.02;16.2666;947.3217;;;;
2020/02/21 15:00:50;;;;;;;1.2;0.8;;;;;;;19.34;19.33887;947.3633;;;;
2020/02/21 15:03:33;;;;;;;2.3;0.7;;;;;;;17.86;21.31738;947.4614;;;;
2020/02/21 15:05:51;;;;;;;1.1;0.7;;;;;;;17.46;20.24219;947.444;;;;
2020/02/21 15:08:19;;;;;;;0.8;0.5;;;;;;;16.19;20.39258;947.4978;;;;
2020/02/21 15:13:30;;;;;;;1.6;0.8;;;;;;;16.59;18.92871;947.5779;;;;
2020/02/21 15:15:56;;;;;;;1.8;0.7;;;;;;;16.47;19.81445;947.6461;;;;
2020/02/21 15:19:33;;;;;;;2.4;0.7;;;;;;;15.76;20.58008;947.4949;;;;
2020/02/21 15:21:24;;;;;;;1.1;0.7;;;;;;;14.78;21.44434;947.3787;;;;
2020/02/21 15:24:09;;;;;;;1.3;0.5;;;;;;;14.38;20.96484;947.4185;;;;
2020/02/21 15:26:34;;;;;;;1.6;0.7;;;;;;;14.8;21.99902;947.3733;;;;
2020/02/21 15:29:01;;;;;;;1.9;0.7;;;;;;;15.1;22.63672;947.5245;;;;
2020/02/21 15:31:33;;;;;;;1.3;0.7;;;;;;;15.32;20.59375;947.6795;;;;
2020/02/21 15:34:04;;;;;;;2.3;0.7;;;;;;;15.69;20.56543;947.5717;;;;
2020/02/21 15:39:20;;;;;;;2;0.7;;;;;;;15.32;22.01367;947.5889;;;;
2020/02/21 15:41:45;;;;;;;2;0.7;;;;;;;14.64;23.02832;947.6509;;;;
2020/02/21 15:44:30;;;;;;;7.4;1.5;;;;;;;13.8;23.58301;947.6077;;;;
2020/02/21 15:49:37;;;;;;;3.1;0.8;;;;;;;12.51;26.9541;947.7131;;;;
2020/02/21 15:52:03;;;;;;;2.4;0.8;;;;;;;11.55;27.4668;947.7117;;;;
2020/02/21 15:54:29;;;;;;;4;1.3;;;;;;;11.06;29.40137;947.6446;;;;
2020/02/21 15:56:52;;;;;;;2.6;1;;;;;;;10.97;29.37207;947.565;;;;
2020/02/21 15:59:17;;;;;;;4.4;1.1;;;;;;;10.58;29.89453;947.5759;;;;
2020/02/21 16:01:42;;;;;;;3.2;1.3;;;;;;;9.84;31.71289;947.6656;;;;
2020/02/21 16:04:35;;;;;;;1.9;0.9;;;;;;;9.69;31.91797;947.7023;;;;
2020/02/21 16:07:05;;;;;;;2;1.5;;;;;;;9.67;31.74609;947.7012;;;;
2020/02/21 16:09:36;;;;;;;6.9;1.5;;;;;;;9.64;31.11621;947.6479;;;;
2020/02/21 16:12:00;;;;;;;10.5;1.4;;;;;;;9.45;31.95801;947.6599;;;;
2020/02/21 16:14:29;;;;;;;2.1;0.9;;;;;;;9.11;31.66992;947.657;;;;
2020/02/21 16:16:56;;;;;;;3.6;0.8;;;;;;;8.9;32.08691;947.7442;;;;
2020/02/21 16:19:16;;;;;;;3.8;1.2;;;;;;;8.89;32.68848;947.7881;;;;
2020/02/21 16:21:49;;;;;;;1.9;1.1;;;;;;;9.09;32.04395;947.8178;;;;
2020/02/21 16:24:10;;;;;;;3.9;1.5;;;;;;;9.02;32.76758;947.8586;;;;
2020/02/21 16:26:37;;;;;;;6.5;1.6;;;;;;;8.89;33.48535;947.8258;;;;
2020/02/21 16:29:09;;;;;;;2.5;1.3;;;;;;;8.62;32.53223;947.835;;;;
2020/02/21 16:31:38;;;;;;;3.4;1;;;;;;;8.77;33.72656;947.7994;;;;
2020/02/21 16:34:13;;;;;;;4.2;1;;;;;;;8.72;32.69922;947.8278;;;;
2020/02/21 16:36:28;;;;;;;6.7;2.3;;;;;;;8.51;33.50195;947.8345;;;;
2020/02/21 16:39:02;;;;;;;3.6;1.2;;;;;;;8.39;33.25391;947.8137;;;;
2020/02/21 16:41:36;;;;;;;1.9;0.9;;;;;;;8.45;33.16699;947.822;;;;
2020/02/21 16:44:08;;;;;;;2;0.9;;;;;;;8.44;33.59766;947.8011;;;;
2020/02/21 16:46:50;;;;;;;4;1.1;;;;;;;8.39;34.34375;947.8064;;;;
2020/02/21 16:49:14;;;;;;;2.7;0.9;;;;;;;8.48;34.01074;947.7756;;;;
2020/02/21 16:51:57;;;;;;;2.4;0.9;;;;;;;8.24;35.84277;947.8688;;;;
2020/02/21 16:54:38;;;;;;;1.7;0.9;;;;;;;8.26;36.35547;947.8328;;;;
2020/02/21 16:59:27;;;;;;;4.5;2;;;;;;;7.79;38.95898;947.8817;;;;